createdAt,value
2018-08-29T00:01:15.955Z,6.70
2018-08-29T00:06:19.054Z,8.30
2018-08-29T00:11:22.177Z,6.23
2018-08-29T00:16:25.271Z,6.33
2018-08-29T00:21:28.383Z,7.70
2018-08-29T00:26:31.491Z,6.17
2018-08-29T00:31:34.609Z,5.80
2018-08-29T00:36:37.699Z,5.53
2018-08-29T00:41:40.787Z,8.40
2018-08-29T00:46:43.889Z,5.63
2018-08-29T00:51:46.987Z,6.40
2018-08-29T00:56:50.093Z,6.80
2018-08-29T01:01:53.237Z,6.53
2018-08-29T01:06:56.302Z,7.70
2018-08-29T01:12:05.821Z,6.20
2018-08-29T01:17:08.926Z,5.40
2018-08-29T01:22:12.068Z,5.07
2018-08-29T01:27:15.150Z,5.50
2018-08-29T01:32:18.234Z,5.80
2018-08-29T01:37:21.308Z,4.63
2018-08-29T01:42:24.397Z,5.43
2018-08-29T01:47:27.498Z,4.40
2018-08-29T01:52:30.596Z,5.73
2018-08-29T01:57:33.673Z,5.37
2018-08-29T02:02:37.122Z,4.50
2018-08-29T02:07:40.206Z,5.83
2018-08-29T02:12:43.291Z,4.60
2018-08-29T02:17:46.403Z,7.30
2018-08-29T02:22:49.498Z,6.10
2018-08-29T02:27:52.619Z,6.13
2018-08-29T02:32:55.723Z,4.90
2018-08-29T02:37:58.852Z,4.53
2018-08-29T02:43:07.452Z,5.30
2018-08-29T02:48:10.588Z,5.93
2018-08-29T02:53:13.683Z,4.93
2018-08-29T02:58:16.787Z,7.30
2018-08-29T03:03:19.899Z,10.10
2018-08-29T03:08:23.011Z,8.37
2018-08-29T03:13:32.926Z,6.70
2018-08-29T03:18:36.028Z,8.50
2018-08-29T03:23:39.135Z,4.80
2018-08-29T03:28:42.259Z,5.10
2018-08-29T03:33:45.388Z,6.53
2018-08-29T03:38:48.505Z,7.30
2018-08-29T03:43:51.587Z,6.57
2018-08-29T03:48:54.684Z,4.03
2018-08-29T03:53:57.808Z,4.83
2018-08-29T03:59:00.891Z,4.87
2018-08-29T04:04:04.052Z,7.93
2018-08-29T04:09:08.408Z,6.17
2018-08-29T04:14:11.923Z,6.80
2018-08-29T04:19:15.190Z,5.37
2018-08-29T04:24:18.344Z,7.60
2018-08-29T04:29:21.399Z,5.77
2018-08-29T04:34:24.505Z,9.03
2018-08-29T04:39:27.588Z,7.73
2018-08-29T04:44:30.683Z,6.00
2018-08-29T04:49:33.767Z,7.10
2018-08-29T04:54:36.935Z,8.67
2018-08-29T04:59:40.031Z,10.63
2018-08-29T05:04:43.115Z,8.03
2018-08-29T05:09:46.263Z,8.87
2018-08-29T05:14:49.347Z,13.93
2018-08-29T05:19:52.464Z,13.30
2018-08-29T05:24:55.601Z,11.27
2018-08-29T05:29:58.798Z,10.37
2018-08-29T05:35:01.879Z,9.47
2018-08-29T05:40:05.007Z,10.63
2018-08-29T05:45:08.105Z,7.83
2018-08-29T05:50:11.203Z,10.57
2018-08-29T05:55:14.298Z,12.83
2018-08-29T06:00:17.382Z,7.90
2018-08-29T06:05:20.487Z,7.27
2018-08-29T06:10:23.587Z,11.87
2018-08-29T06:15:26.682Z,8.73
2018-08-29T06:20:29.811Z,13.13
2018-08-29T06:25:32.902Z,6.07
2018-08-29T06:30:36.004Z,8.30
2018-08-29T06:35:39.207Z,9.53
2018-08-29T06:40:42.296Z,12.57
2018-08-29T06:45:45.427Z,12.80
2018-08-29T06:50:48.533Z,7.60
2018-08-29T06:55:51.623Z,10.03
2018-08-29T07:00:54.719Z,34.80
2018-08-29T07:05:57.826Z,9.10
2018-08-29T07:11:00.923Z,10.10
2018-08-29T07:16:04.092Z,11.00
2018-08-29T07:21:07.142Z,11.70
2018-08-29T07:26:10.231Z,9.10
2018-08-29T07:31:13.327Z,10.80
2018-08-29T07:36:16.509Z,8.43
2018-08-29T07:41:19.723Z,6.60
2018-08-29T07:46:22.847Z,9.17
2018-08-29T07:51:25.968Z,8.67
2018-08-29T07:56:29.070Z,8.73
2018-08-29T08:01:32.252Z,6.20
2018-08-29T08:06:35.248Z,9.63
2018-08-29T08:11:38.347Z,6.97
2018-08-29T08:16:41.592Z,9.43
2018-08-29T08:21:44.688Z,7.93
2018-08-29T08:26:47.787Z,9.10
2018-08-29T08:31:50.896Z,8.53
2018-08-29T08:36:54.004Z,6.90
2018-08-29T08:41:57.080Z,7.60
2018-08-29T08:47:00.201Z,11.03
2018-08-29T08:52:03.387Z,5.17
2018-08-29T08:57:06.596Z,9.20
2018-08-29T09:02:09.748Z,7.13
2018-08-29T09:07:12.876Z,9.80
2018-08-29T09:12:16.097Z,6.43
2018-08-29T09:17:19.202Z,6.00
2018-08-29T09:22:22.322Z,6.37
2018-08-29T09:27:25.412Z,7.10
2018-08-29T09:32:28.528Z,7.87
2018-08-29T09:37:31.628Z,9.27
2018-08-29T09:42:34.743Z,6.90
2018-08-29T09:47:37.895Z,8.90
2018-08-29T09:52:40.987Z,8.43
2018-08-29T09:57:44.102Z,8.80
2018-08-29T10:02:52.743Z,8.80
2018-08-29T10:07:55.955Z,9.77
2018-08-29T10:12:59.071Z,10.33
2018-08-29T10:18:02.168Z,9.50
2018-08-29T10:23:05.435Z,10.00
2018-08-29T10:28:08.558Z,9.80
2018-08-29T10:33:11.679Z,11.70
2018-08-29T10:38:14.808Z,9.83
2018-08-29T10:43:17.890Z,7.77
2018-08-29T10:48:21.002Z,12.03
2018-08-29T10:53:24.111Z,10.00
2018-08-29T10:58:27.225Z,12.97
2018-08-29T11:03:30.363Z,11.73
2018-08-29T11:08:33.486Z,11.50
2018-08-29T11:13:36.607Z,11.40
2018-08-29T11:18:39.715Z,6.30
2018-08-29T11:23:42.838Z,8.10
2018-08-29T11:28:45.947Z,11.27
2018-08-29T11:33:49.052Z,13.63
2018-08-29T11:38:52.142Z,10.73
2018-08-29T11:43:55.227Z,12.50
2018-08-29T11:48:58.330Z,9.80
2018-08-29T11:54:01.461Z,11.63
2018-08-29T11:59:04.562Z,9.27
2018-08-29T12:04:07.655Z,15.37
2018-08-29T12:09:10.736Z,13.80
2018-08-29T12:14:13.846Z,12.63
2018-08-29T12:19:17.003Z,11.73
2018-08-29T12:24:20.084Z,13.70
2018-08-29T12:29:23.196Z,12.57
2018-08-29T12:34:26.303Z,15.40
2018-08-29T12:39:29.415Z,11.83
2018-08-29T12:44:32.548Z,11.80
2018-08-29T12:49:35.675Z,12.47
2018-08-29T12:54:38.767Z,12.60
2018-08-29T12:59:41.891Z,13.23
2018-08-29T13:04:44.970Z,16.87
2018-08-29T13:09:48.107Z,17.23
2018-08-29T13:14:51.353Z,14.03
2018-08-29T13:19:54.380Z,13.93
2018-08-29T13:24:57.475Z,12.40
2018-08-29T13:30:00.613Z,10.17
2018-08-29T13:35:03.998Z,12.43
2018-08-29T13:40:07.281Z,10.40
2018-08-29T13:45:10.419Z,13.03
2018-08-29T13:50:13.551Z,13.47
2018-08-29T13:55:16.735Z,7.30
2018-08-29T14:00:19.860Z,8.77
2018-08-29T14:05:22.983Z,12.27
2018-08-29T14:10:26.085Z,14.90
2018-08-29T14:15:29.157Z,9.40
2018-08-29T14:20:32.255Z,9.20
2018-08-29T14:25:35.372Z,8.60
2018-08-29T14:30:38.476Z,11.93
2018-08-29T14:35:41.559Z,14.43
2018-08-29T14:40:44.665Z,9.10
2018-08-29T14:45:47.780Z,14.73
2018-08-29T14:50:50.868Z,9.70
2018-08-29T14:55:53.993Z,9.33
2018-08-29T15:01:09.788Z,8.43
2018-08-29T15:06:13.525Z,10.40
2018-08-29T15:11:16.623Z,10.57
2018-08-29T15:16:19.765Z,12.53
2018-08-29T15:21:22.871Z,9.43
2018-08-29T15:26:26.058Z,11.50
2018-08-29T15:31:29.147Z,11.17
2018-08-29T15:36:32.300Z,9.80
2018-08-29T15:41:35.370Z,11.00
2018-08-29T15:46:39.704Z,10.50
2018-08-29T15:51:42.812Z,14.60
2018-08-29T15:56:45.915Z,14.13
2018-08-29T16:01:49.007Z,9.83
2018-08-29T16:06:58.990Z,11.67
2018-08-29T16:12:02.049Z,12.30
2018-08-29T16:17:05.446Z,10.80
2018-08-29T16:23:37.923Z,8.40
2018-08-29T16:28:41.048Z,9.70
2018-08-29T16:33:44.163Z,7.80
2018-08-29T16:38:47.266Z,12.87
2018-08-29T16:43:50.407Z,11.20
2018-08-29T16:48:53.679Z,9.60
2018-08-29T16:53:57.193Z,10.17
2018-08-29T17:06:28.106Z,14.33
2018-08-29T17:11:31.340Z,12.20
2018-08-29T17:16:34.543Z,14.27
2018-08-29T17:21:38.004Z,12.07
2018-08-29T17:26:41.649Z,11.67
2018-08-29T17:31:44.899Z,15.00
2018-08-29T17:36:47.995Z,18.47
2018-08-29T17:41:51.243Z,14.43
2018-08-29T17:46:54.708Z,12.53
2018-08-29T17:51:57.802Z,13.23
2018-08-29T17:57:00.899Z,13.53
2018-08-29T18:02:04.019Z,16.73
2018-08-29T18:07:07.140Z,14.00
2018-08-29T18:12:10.247Z,12.27
2018-08-29T18:17:20.588Z,17.10
2018-08-29T18:22:23.763Z,16.03
2018-08-29T18:27:27.300Z,12.67
2018-08-29T18:32:30.484Z,16.67
2018-08-29T18:37:35.087Z,12.33
2018-08-29T18:42:38.191Z,12.10
2018-08-29T18:47:41.350Z,11.00
2018-08-29T18:52:44.565Z,13.60
2018-08-29T18:57:47.615Z,15.97
2018-08-29T19:02:50.715Z,17.07
2018-08-29T19:07:53.851Z,10.53
2018-08-29T19:12:56.982Z,15.10
2018-08-29T19:18:00.127Z,14.43
2018-08-29T19:23:03.217Z,23.17
2018-08-29T19:28:06.341Z,25.67
2018-08-29T19:33:09.499Z,19.93
2018-08-29T19:38:12.609Z,21.17
2018-08-29T19:43:15.700Z,12.70
2018-08-29T19:48:19.054Z,16.23
2018-08-29T19:53:22.159Z,15.50
2018-08-29T19:58:25.272Z,25.13
2018-08-29T20:03:28.488Z,18.53
2018-08-29T20:08:31.663Z,17.63
2018-08-29T20:13:34.868Z,17.80
2018-08-29T20:18:43.460Z,17.70
2018-08-29T20:23:46.698Z,13.53
2018-08-29T20:28:49.879Z,10.57
2018-08-29T20:33:53.011Z,9.90
2018-08-29T20:38:56.156Z,15.77
2018-08-29T20:43:59.279Z,11.33
2018-08-29T20:49:02.406Z,11.47
2018-08-29T20:54:05.509Z,16.67
2018-08-29T20:59:08.627Z,16.87
2018-08-29T21:04:11.746Z,12.40
2018-08-29T21:09:14.880Z,13.87
2018-08-29T21:14:17.988Z,16.33
2018-08-29T21:19:21.107Z,17.90
2018-08-29T21:24:24.342Z,12.33
2018-08-29T21:29:39.006Z,14.80
2018-08-29T21:37:03.226Z,14.77
2018-08-29T21:42:06.591Z,13.60
2018-08-29T21:47:34.685Z,14.10
2018-08-29T21:53:47.867Z,11.27
2018-08-29T21:59:05.902Z,18.67
2018-08-29T22:05:14.486Z,12.60
2018-08-29T22:10:17.583Z,16.93
2018-08-29T22:15:23.971Z,11.87
2018-08-29T22:20:28.018Z,12.10
2018-08-29T22:25:31.144Z,18.83
2018-08-29T22:30:34.267Z,19.00
2018-08-29T22:35:37.395Z,15.60
2018-08-29T22:40:40.532Z,15.60
2018-08-29T22:45:43.687Z,18.10
2018-08-29T22:50:46.811Z,16.50
2018-08-29T22:55:49.932Z,21.57
2018-08-29T23:00:53.049Z,17.90
2018-08-29T23:05:56.151Z,20.60
2018-08-29T23:10:59.254Z,25.70
2018-08-29T23:16:02.376Z,21.83
2018-08-29T23:21:05.512Z,19.10
2018-08-29T23:26:08.628Z,16.17
2018-08-29T23:31:11.755Z,19.10
2018-08-29T23:36:14.880Z,18.60
2018-08-29T23:41:17.982Z,17.20
2018-08-29T23:46:21.190Z,16.63
2018-08-29T23:51:24.302Z,19.00
2018-08-29T23:56:27.423Z,16.07
